Terminal Aerodrome Forecast
Issued by NWS

Home | Current Version | Previous Version | Text Only | Print | Product List | Glossary On
Versions: 1 2 3 4 5 6 7 8 9 10 11 12
000
FTUS45 KRIW 251740
TAFBPI
TAF
KBPI 251740Z 2518/2618 22012KT P6SM SCT100
     FM252000 32012G18KT P6SM BKN080
     FM260100 35008KT P6SM SCT080
     FM260900 VRB06KT P6SM VCSH BKN060
     FM261400 03010KT 5SM -RA OVC030=

USA.gov is the U.S. government's official web portal to all federal, state and local government web resources and services.